Time;durP1;ratioP1;P1;durP2;ratioP2;P2;SDS_P1;SDS_P2;PMS_P1;PMS_P2;Temp;Humidity;BMP_temperature;BMP_pressure;BME280_temperature;BME280_humidity;BME280_pressure;Samples;Min_cycle;Max_cycle;Signal;HPM_P1;HPM_P2
2022/07/01 00:01:28;;;;;;;0.70;0.20;;;23.10;62.90;;;;;;5111210;28;20400;-76
2022/07/01 00:03:54;;;;;;;1.75;0.55;;;23.00;62.80;;;;;;5110997;28;20126;-72
2022/07/01 00:06:20;;;;;;;0.50;0.10;;;23.00;63.60;;;;;;5111090;28;20035;-75
2022/07/01 00:08:47;;;;;;;0.85;0.40;;;23.00;62.80;;;;;;5112134;28;20044;-75
2022/07/01 00:11:13;;;;;;;1.30;0.30;;;23.00;62.80;;;;;;5110933;28;20050;-76
2022/07/01 00:13:42;;;;;;;1.23;0.30;;;23.00;62.80;;;;;;5110904;28;20055;-76
2022/07/01 00:16:08;;;;;;;0.65;0.20;;;23.00;62.70;;;;;;5111182;28;20040;-76
2022/07/01 00:18:33;;;;;;;0.85;0.20;;;22.90;62.80;;;;;;5112016;28;20502;-76
2022/07/01 00:21:02;;;;;;;1.08;0.20;;;22.90;62.80;;;;;;5111111;28;20122;-77
2022/07/01 00:23:28;;;;;;;1.05;0.20;;;22.90;62.80;;;;;;5112024;28;20073;-72
2022/07/01 00:25:53;;;;;;;0.90;0.30;;;22.90;62.80;;;;;;5111091;28;20039;-76
2022/07/01 00:28:19;;;;;;;1.05;0.20;;;22.90;62.80;;;;;;5110743;28;20399;-76
2022/07/01 00:30:45;;;;;;;0.57;0.17;;;23.00;63.00;;;;;;5110934;28;20047;-76
2022/07/01 00:33:11;;;;;;;0.60;0.15;;;23.00;62.90;;;;;;5110675;28;20177;-76
2022/07/01 00:35:37;;;;;;;0.63;0.10;;;22.90;62.80;;;;;;5110691;28;20039;-76
2022/07/01 00:38:03;;;;;;;0.95;0.20;;;22.90;62.80;;;;;;5110543;28;20113;-75
2022/07/01 00:40:29;;;;;;;0.50;0.10;;;22.90;62.90;;;;;;5112179;28;20096;-76
2022/07/01 00:42:55;;;;;;;0.73;0.22;;;22.90;62.80;;;;;;5110918;28;20046;-76
2022/07/01 00:45:21;;;;;;;0.77;0.20;;;22.90;62.80;;;;;;5114188;28;20115;-76
2022/07/01 00:47:47;;;;;;;0.52;0.10;;;22.90;62.90;;;;;;5115805;28;20646;-76
2022/07/01 00:50:16;;;;;;;0.60;0.20;;;22.90;62.80;;;;;;5114451;28;20044;-76
2022/07/01 00:52:44;;;;;;;0.40;0.10;;;22.80;62.70;;;;;;5114659;28;20083;-75
2022/07/01 00:55:12;;;;;;;1.13;0.20;;;22.90;62.80;;;;;;5115646;28;20042;-76
2022/07/01 00:57:40;;;;;;;0.63;0.13;;;22.80;62.70;;;;;;5132645;27;20058;-76
2022/07/01 01:00:10;;;;;;;0.35;0.15;;;22.80;62.80;;;;;;5138213;27;20494;-76
2022/07/01 01:02:37;;;;;;;0.32;0.10;;;22.80;62.80;;;;;;5156843;27;20053;-76
2022/07/01 01:05:05;;;;;;;1.50;0.20;;;22.80;62.80;;;;;;5138063;27;20041;-76
2022/07/01 01:07:32;;;;;;;0.68;0.20;;;22.80;62.70;;;;;;5138158;27;20470;-76
2022/07/01 01:09:59;;;;;;;0.70;0.17;;;22.80;62.70;;;;;;5138261;27;20088;-76
2022/07/01 01:12:26;;;;;;;0.55;0.13;;;22.80;62.80;;;;;;5138042;27;20038;-76
2022/07/01 01:14:52;;;;;;;0.88;0.30;;;22.80;62.70;;;;;;5137951;27;20126;-75
2022/07/01 01:17:19;;;;;;;0.98;0.15;;;22.80;62.70;;;;;;5138094;27;20121;-76
2022/07/01 01:19:45;;;;;;;0.60;0.52;;;22.80;62.70;;;;;;5156313;27;20042;-76
2022/07/01 01:22:14;;;;;;;0.43;0.10;;;22.80;62.80;;;;;;5138100;27;20098;-76
2022/07/01 01:24:41;;;;;;;1.07;0.20;;;22.70;62.70;;;;;;5137727;27;20038;-75
2022/07/01 01:27:07;;;;;;;0.88;0.32;;;22.70;62.80;;;;;;5156353;27;20045;-76
2022/07/01 01:29:35;;;;;;;0.40;0.20;;;22.70;62.80;;;;;;5137547;27;20046;-76
2022/07/01 01:32:01;;;;;;;0.52;0.30;;;22.70;62.80;;;;;;5156275;27;20101;-76
2022/07/01 01:34:30;;;;;;;0.57;0.20;;;22.70;62.80;;;;;;5137712;27;20039;-75
2022/07/01 01:36:55;;;;;;;1.35;0.40;;;22.70;62.80;;;;;;5137729;27;20038;-75
2022/07/01 01:39:21;;;;;;;0.63;0.60;;;22.70;62.80;;;;;;5137486;27;20440;-76
2022/07/01 01:41:47;;;;;;;0.90;0.52;;;22.70;62.80;;;;;;5156239;27;20113;-75
2022/07/01 01:44:13;;;;;;;1.52;0.85;;;22.70;62.90;;;;;;5133837;27;20040;-76
2022/07/01 01:46:39;;;;;;;1.05;0.60;;;22.70;62.90;;;;;;5116904;27;20043;-76
2022/07/01 01:49:06;;;;;;;1.35;0.60;;;22.70;62.90;;;;;;5116748;27;20368;-76
2022/07/01 01:51:32;;;;;;;1.45;0.82;;;22.60;62.80;;;;;;5116550;27;20043;-76
2022/07/01 01:53:59;;;;;;;1.50;0.95;;;22.70;62.90;;;;;;5135110;27;20045;-76
2022/07/01 01:56:26;;;;;;;1.65;1.10;;;22.60;62.80;;;;;;5116596;27;20035;-76
2022/07/01 01:58:52;;;;;;;1.40;1.10;;;22.60;62.80;;;;;;5116183;27;20259;-76
2022/07/01 02:01:19;;;;;;;1.83;1.17;;;22.60;62.80;;;;;;5134818;27;20387;-75
2022/07/01 02:03:47;;;;;;;1.73;1.10;;;22.60;62.80;;;;;;5116377;27;20122;-76
2022/07/01 02:06:14;;;;;;;1.27;0.80;;;22.60;62.70;;;;;;5116619;27;20434;-73
2022/07/01 02:08:40;;;;;;;1.15;0.63;;;22.60;62.80;;;;;;5116569;27;20051;-76
2022/07/01 02:11:07;;;;;;;2.60;1.20;;;22.60;62.70;;;;;;5116226;27;20053;-76
2022/07/01 02:13:33;;;;;;;1.30;0.80;;;22.60;62.70;;;;;;5134787;27;20406;-75
2022/07/01 02:15:59;;;;;;;1.48;0.60;;;22.60;62.70;;;;;;5134694;27;20039;-76
2022/07/01 02:18:25;;;;;;;1.80;0.80;;;22.60;62.80;;;;;;5134428;27;20060;-75
2022/07/01 02:20:51;;;;;;;1.00;0.60;;;22.50;62.70;;;;;;5116246;27;20045;-75
2022/07/01 02:23:17;;;;;;;2.10;0.90;;;22.50;62.70;;;;;;5116015;27;20035;-75
2022/07/01 02:25:42;;;;;;;1.10;0.80;;;22.50;62.70;;;;;;5115911;27;20046;-75
2022/07/01 02:28:10;;;;;;;1.13;0.65;;;22.50;62.70;;;;;;5116179;27;20045;-75
2022/07/01 02:30:36;;;;;;;1.05;0.60;;;22.50;62.70;;;;;;5115838;27;20039;-76
2022/07/01 02:33:03;;;;;;;1.05;0.60;;;22.50;62.70;;;;;;5134141;27;20065;-76
2022/07/01 02:35:29;;;;;;;1.00;0.50;;;22.50;62.70;;;;;;5115812;27;20046;-75
2022/07/01 02:37:55;;;;;;;0.90;0.47;;;22.50;62.70;;;;;;5115655;27;20043;-75
2022/07/01 02:40:20;;;;;;;1.25;0.60;;;22.50;62.70;;;;;;5115922;27;20122;-76
2022/07/01 02:42:46;;;;;;;1.15;0.68;;;22.50;62.60;;;;;;5134045;27;20042;-76
2022/07/01 02:45:12;;;;;;;1.13;0.50;;;22.50;62.70;;;;;;5133883;27;20531;-75
2022/07/01 02:47:39;;;;;;;1.00;0.50;;;22.50;62.60;;;;;;5136305;27;20051;-76
2022/07/01 02:50:08;;;;;;;0.82;0.30;;;22.40;62.50;;;;;;5136266;27;20044;-75
2022/07/01 02:52:35;;;;;;;0.80;0.40;;;22.40;62.50;;;;;;5136034;27;20046;-75
2022/07/01 02:55:01;;;;;;;0.50;0.22;;;22.40;62.50;;;;;;5136336;27;20463;-75
2022/07/01 02:57:27;;;;;;;0.65;0.40;;;22.40;62.60;;;;;;5135501;27;20035;-76
2022/07/01 02:59:53;;;;;;;1.27;0.47;;;22.40;62.60;;;;;;5135867;27;20042;-75
2022/07/01 03:02:19;;;;;;;0.52;0.20;;;22.40;62.60;;;;;;5135824;27;20073;-76
2022/07/01 03:04:46;;;;;;;1.30;0.50;;;22.40;62.80;;;;;;5135733;27;20030;-75
2022/07/01 03:07:12;;;;;;;1.02;0.22;;;22.40;63.30;;;;;;5135271;27;20076;-75
2022/07/01 03:09:39;;;;;;;1.30;0.50;;;22.40;62.60;;;;;;5135943;27;20161;-75
2022/07/01 03:12:24;;;;;;;1.75;0.50;;;22.40;62.60;;;;;;5154409;27;20038;-76
2022/07/01 03:14:52;;;;;;;0.93;0.45;;;22.40;62.60;;;;;;5135952;27;20038;-75
2022/07/01 03:17:18;;;;;;;2.03;0.45;;;22.40;62.60;;;;;;5135614;27;20054;-75
2022/07/01 03:19:44;;;;;;;0.93;0.50;;;22.30;62.50;;;;;;5135751;27;20034;-76
2022/07/01 03:22:10;;;;;;;1.25;0.60;;;22.30;62.50;;;;;;5135525;27;20049;-75
2022/07/01 03:24:35;;;;;;;1.38;0.40;;;22.30;62.50;;;;;;5135647;27;20038;-75
2022/07/01 03:27:04;;;;;;;1.02;0.50;;;22.30;62.50;;;;;;5135782;27;20457;-76
2022/07/01 03:29:30;;;;;;;2.13;0.80;;;22.30;62.60;;;;;;5135522;27;20035;-75
2022/07/01 03:31:56;;;;;;;0.90;0.52;;;22.30;62.50;;;;;;5135352;27;20534;-75
2022/07/01 03:34:22;;;;;;;1.83;0.80;;;22.30;62.50;;;;;;5135437;27;20049;-75
2022/07/01 03:36:48;;;;;;;1.45;0.50;;;22.30;62.50;;;;;;5135481;27;20042;-75
2022/07/01 03:39:16;;;;;;;0.80;0.45;;;22.30;62.50;;;;;;5135247;27;20054;-75
2022/07/01 03:41:42;;;;;;;0.70;0.40;;;22.30;63.40;;;;;;5153833;27;20045;-75
2022/07/01 03:44:11;;;;;;;1.52;1.17;;;22.30;62.60;;;;;;5131663;27;20039;-75
2022/07/01 03:46:37;;;;;;;1.45;0.75;;;22.30;62.60;;;;;;5114524;28;20387;-76
2022/07/01 03:49:04;;;;;;;1.40;1.10;;;22.30;62.60;;;;;;5114627;28;20051;-75
2022/07/01 03:51:30;;;;;;;1.13;0.70;;;22.30;62.50;;;;;;5114762;28;20082;-75
2022/07/01 03:56:41;;;;;;;1.25;0.73;;;22.20;62.50;;;;;;5114127;28;20501;-75
2022/07/01 03:59:07;;;;;;;1.85;1.33;;;22.20;62.50;;;;;;5114190;28;20051;-75
2022/07/01 04:01:33;;;;;;;1.45;0.82;;;22.20;62.50;;;;;;5132742;28;20042;-75
2022/07/01 04:03:58;;;;;;;1.13;0.90;;;22.30;62.50;;;;;;5114608;28;20063;-75
2022/07/01 04:06:24;;;;;;;1.75;1.63;;;22.20;62.50;;;;;;5114414;28;20475;-75
2022/07/01 04:08:50;;;;;;;1.80;1.35;;;22.20;62.50;;;;;;5114365;28;20043;-75
2022/07/01 04:11:16;;;;;;;1.70;1.45;;;22.20;62.50;;;;;;5114271;28;20054;-75
2022/07/01 04:13:49;;;;;;;2.08;1.13;;;22.20;62.50;;;;;;5132734;28;20043;-75
2022/07/01 04:16:18;;;;;;;1.98;1.70;;;22.20;62.40;;;;;;5114259;28;20251;-76
2022/07/01 04:18:46;;;;;;;2.75;1.73;;;22.20;62.40;;;;;;5115105;27;20057;-75
2022/07/01 04:23:58;;;;;;;2.38;1.80;;;22.20;62.40;;;;;;5118196;27;20042;-75
2022/07/01 04:26:24;;;;;;;1.77;1.60;;;22.20;62.40;;;;;;5118568;27;20043;-75
2022/07/01 04:28:51;;;;;;;1.58;1.23;;;22.20;62.40;;;;;;5118555;27;20051;-75
2022/07/01 04:31:16;;;;;;;2.90;1.70;;;22.20;62.40;;;;;;5118368;27;20074;-76
2022/07/01 04:33:42;;;;;;;2.10;1.90;;;22.20;62.40;;;;;;5118117;27;20131;-75
2022/07/01 04:36:11;;;;;;;2.50;1.92;;;22.10;62.30;;;;;;5118458;27;20130;-75
2022/07/01 04:38:36;;;;;;;2.00;1.70;;;22.10;62.30;;;;;;5118035;27;20040;-75
2022/07/01 04:43:51;;;;;;;2.78;1.55;;;22.10;62.30;;;;;;5124902;27;20043;-75
2022/07/01 04:46:16;;;;;;;2.63;2.40;;;22.10;62.30;;;;;;5138363;27;20390;-76
2022/07/01 04:48:42;;;;;;;2.88;1.70;;;22.10;62.30;;;;;;5138494;27;20049;-76
2022/07/01 04:51:08;;;;;;;1.55;1.42;;;22.10;62.20;;;;;;5138485;27;20050;-76
2022/07/01 04:53:33;;;;;;;1.85;1.63;;;22.10;62.30;;;;;;5138789;27;20050;-76
2022/07/01 04:55:59;;;;;;;2.30;1.95;;;22.10;62.30;;;;;;5138107;27;20070;-75
2022/07/01 04:58:25;;;;;;;2.40;2.20;;;22.10;62.30;;;;;;5156493;27;20046;-75
2022/07/01 05:00:52;;;;;;;2.75;2.13;;;22.10;62.30;;;;;;5138393;27;20035;-75
2022/07/01 05:03:17;;;;;;;2.60;2.40;;;22.10;62.20;;;;;;5138147;27;20038;-76
2022/07/01 05:05:43;;;;;;;2.55;2.33;;;22.10;62.30;;;;;;5156751;27;20035;-76
2022/07/01 05:08:09;;;;;;;2.63;2.28;;;22.10;62.20;;;;;;5137968;27;20485;-75
2022/07/01 05:10:34;;;;;;;2.95;2.65;;;22.10;62.20;;;;;;5121448;27;20035;-75
2022/07/01 05:13:00;;;;;;;4.07;3.33;;;22.10;62.20;;;;;;5137387;27;20042;-78
2022/07/01 05:15:26;;;;;;;1.95;1.65;;;22.10;62.20;;;;;;5135931;27;20079;-79
2022/07/01 05:23:22;;;;;;;5.40;2.63;;;22.10;62.10;;;;;;5157779;27;20031;-81
2022/07/01 05:25:48;;;;;;;3.05;2.75;;;22.10;62.00;;;;;;5157955;27;20434;-81
2022/07/01 05:28:14;;;;;;;3.28;2.95;;;22.10;62.00;;;;;;5140334;27;20054;-73
2022/07/01 05:30:39;;;;;;;5.00;4.47;;;22.10;61.90;;;;;;5139604;27;20090;-76
2022/07/01 05:33:06;;;;;;;4.28;3.88;;;22.10;61.80;;;;;;5117792;27;20092;-72
2022/07/01 05:35:31;;;;;;;6.57;4.80;;;22.10;61.50;;;;;;5134877;27;20035;-73
2022/07/01 05:37:58;;;;;;;6.53;4.90;;;22.10;61.40;;;;;;5134839;27;20363;-75
2022/07/01 05:40:25;;;;;;;6.28;4.68;;;22.10;61.20;;;;;;5136870;27;20158;-74
2022/07/01 05:42:51;;;;;;;5.38;4.88;;;22.20;61.40;;;;;;5137131;27;20117;-73
2022/07/01 05:45:17;;;;;;;6.43;5.75;;;22.20;61.30;;;;;;5133671;27;20416;-73
2022/07/01 05:47:43;;;;;;;4.10;3.80;;;22.20;61.10;;;;;;5150747;27;20094;-72
2022/07/01 05:50:09;;;;;;;6.10;3.90;;;22.20;61.00;;;;;;5136592;27;20118;-74
2022/07/01 05:52:35;;;;;;;5.53;2.80;;;22.20;61.00;;;;;;5136211;27;20125;-74
2022/07/01 05:55:04;;;;;;;4.55;3.47;;;22.20;61.00;;;;;;5142003;27;20073;-76
2022/07/01 05:57:30;;;;;;;3.45;3.10;;;22.20;60.90;;;;;;5158016;27;20458;-75
2022/07/01 05:59:55;;;;;;;3.35;2.60;;;22.20;60.90;;;;;;5168806;27;20038;-75
2022/07/01 06:02:21;;;;;;;3.53;3.22;;;22.10;60.70;;;;;;5154620;27;20121;-74
2022/07/01 06:04:46;;;;;;;3.88;3.33;;;22.10;60.70;;;;;;5151195;27;20038;-76
2022/07/01 06:07:12;;;;;;;3.97;3.55;;;22.10;60.60;;;;;;5154203;27;20122;-75
2022/07/01 06:09:38;;;;;;;7.72;3.53;;;22.10;60.60;;;;;;5122466;27;20039;-73
2022/07/01 06:12:05;;;;;;;8.00;5.47;;;22.10;60.50;;;;;;5151949;27;20035;-76
2022/07/01 06:14:31;;;;;;;3.50;2.85;;;22.10;60.60;;;;;;5132505;27;20535;-75
2022/07/01 06:16:56;;;;;;;2.97;2.40;;;22.10;60.50;;;;;;5123807;27;20039;-73
2022/07/01 06:19:22;;;;;;;6.88;3.38;;;22.10;60.50;;;;;;5127994;27;20046;-74
2022/07/01 06:21:47;;;;;;;6.10;3.30;;;22.20;60.60;;;;;;5135335;27;20027;-73
2022/07/01 06:24:13;;;;;;;6.88;2.85;;;22.10;60.60;;;;;;5149283;27;20587;-73
2022/07/01 06:26:39;;;;;;;4.68;3.78;;;22.20;61.40;;;;;;5136296;27;20022;-74
2022/07/01 06:29:05;;;;;;;6.43;3.00;;;22.20;60.60;;;;;;5151147;27;20515;-74
2022/07/01 06:31:34;;;;;;;8.90;3.53;;;22.20;60.60;;;;;;5151718;27;20113;-73
2022/07/01 06:34:00;;;;;;;6.07;3.38;;;22.20;60.60;;;;;;5132351;27;20498;-74
2022/07/01 06:36:26;;;;;;;3.92;3.60;;;22.20;60.50;;;;;;5127848;27;20077;-74
2022/07/01 06:38:54;;;;;;;6.10;3.60;;;22.20;60.50;;;;;;5139278;27;20038;-75
2022/07/01 06:41:27;;;;;;;5.15;3.13;;;22.20;60.40;;;;;;5154744;27;20034;-76
2022/07/01 06:43:57;;;;;;;4.97;2.85;;;22.20;60.30;;;;;;5154712;27;20041;-75
2022/07/01 06:46:23;;;;;;;7.05;4.97;;;22.20;60.30;;;;;;5154281;27;20053;-79
2022/07/01 06:48:49;;;;;;;8.77;3.75;;;22.20;60.20;;;;;;5152839;27;20099;-78
2022/07/01 06:51:15;;;;;;;4.38;3.97;;;22.20;60.20;;;;;;5133139;27;20050;-80
2022/07/01 06:53:41;;;;;;;5.03;3.40;;;22.20;60.20;;;;;;5153351;27;20516;-79
2022/07/01 06:56:08;;;;;;;7.40;3.33;;;22.20;60.30;;;;;;5137902;27;20494;-79
2022/07/01 06:58:33;;;;;;;5.13;3.38;;;22.20;60.30;;;;;;5117137;27;20047;-79
2022/07/01 07:00:59;;;;;;;9.23;3.33;;;22.20;60.30;;;;;;5128854;27;20087;-80
2022/07/01 07:03:25;;;;;;;8.05;3.90;;;22.20;60.20;;;;;;5128054;27;20096;-76
2022/07/01 07:05:52;;;;;;;6.30;4.22;;;22.30;60.30;;;;;;5128041;27;20119;-77
2022/07/01 07:08:18;;;;;;;7.40;3.85;;;22.30;60.20;;;;;;5118633;27;20486;-77
2022/07/01 07:10:43;;;;;;;3.97;3.67;;;22.30;60.10;;;;;;5125320;27;20054;-75
2022/07/01 07:13:09;;;;;;;3.85;3.53;;;22.30;60.00;;;;;;5119789;27;20434;-77
2022/07/01 07:15:35;;;;;;;4.03;3.63;;;22.30;59.80;;;;;;5117401;27;20039;-76
2022/07/01 07:18:01;;;;;;;4.70;3.85;;;22.40;59.80;;;;;;5119645;27;20050;-76
2022/07/01 07:20:27;;;;;;;4.25;3.20;;;22.40;59.70;;;;;;5128318;27;20035;-78
2022/07/01 07:22:53;;;;;;;4.32;4.00;;;22.40;59.60;;;;;;5127001;27;20645;-78
2022/07/01 07:25:22;;;;;;;4.30;3.90;;;22.40;59.40;;;;;;5127510;27;20042;-74
2022/07/01 07:27:47;;;;;;;4.03;3.60;;;22.40;59.40;;;;;;5118682;27;20047;-74
2022/07/01 07:30:13;;;;;;;3.75;3.40;;;22.50;59.40;;;;;;5121269;27;20706;-78
2022/07/01 07:32:39;;;;;;;3.45;3.15;;;22.50;59.30;;;;;;5114971;27;20097;-76
2022/07/01 07:35:06;;;;;;;5.28;3.67;;;22.50;59.20;;;;;;5118523;27;20036;-75
2022/07/01 07:37:32;;;;;;;4.25;3.85;;;22.60;59.20;;;;;;5118177;27;20127;-76
2022/07/01 07:39:59;;;;;;;3.72;3.42;;;22.50;59.10;;;;;;5126677;27;20039;-75
2022/07/01 07:42:25;;;;;;;3.25;3.05;;;22.60;59.10;;;;;;5124400;27;20031;-75
2022/07/01 07:44:53;;;;;;;5.15;3.38;;;22.60;59.20;;;;;;5126677;27;20364;-74
2022/07/01 07:47:19;;;;;;;4.20;3.80;;;22.60;59.10;;;;;;5120518;27;20394;-78
2022/07/01 07:49:45;;;;;;;3.67;3.38;;;22.60;59.00;;;;;;5120742;27;20039;-78
2022/07/01 07:52:11;;;;;;;3.88;3.58;;;22.70;58.90;;;;;;5115418;27;20039;-78
2022/07/01 07:54:37;;;;;;;4.63;3.85;;;22.70;58.70;;;;;;5111151;27;20622;-79
2022/07/01 07:57:04;;;;;;;3.20;2.90;;;22.70;58.70;;;;;;5101549;27;20042;-77
2022/07/01 07:59:30;;;;;;;3.65;3.30;;;22.70;58.60;;;;;;5119832;27;20077;-78
2022/07/01 08:01:55;;;;;;;5.20;4.47;;;22.70;58.50;;;;;;5106914;28;20038;-76
2022/07/01 08:04:21;;;;;;;4.85;3.63;;;22.70;58.60;;;;;;5107639;28;20092;-71
2022/07/01 08:06:46;;;;;;;4.15;3.72;;;22.70;58.70;;;;;;5116189;27;20492;-72
2022/07/01 08:09:12;;;;;;;4.00;3.15;;;22.70;58.60;;;;;;5109019;27;20044;-71
2022/07/01 08:11:38;;;;;;;4.20;3.53;;;22.80;58.50;;;;;;5116623;28;20433;-70
2022/07/01 08:14:04;;;;;;;4.95;3.60;;;22.90;58.40;;;;;;5120682;27;20043;-69
2022/07/01 08:16:30;;;;;;;6.13;3.42;;;22.90;58.50;;;;;;5115887;28;20764;-71
2022/07/01 08:18:55;;;;;;;4.40;3.30;;;22.90;58.50;;;;;;5119982;27;20039;-76
2022/07/01 08:21:24;;;;;;;3.38;3.17;;;22.90;58.30;;;;;;5120229;28;20557;-72
2022/07/01 08:23:50;;;;;;;4.80;3.38;;;22.90;58.20;;;;;;5117213;28;20096;-75
2022/07/01 08:26:16;;;;;;;10.60;3.92;;;23.00;58.30;;;;;;5117207;28;20036;-73
2022/07/01 08:28:43;;;;;;;4.03;3.40;;;23.00;58.40;;;;;;5118591;28;20054;-74
2022/07/01 08:31:08;;;;;;;4.25;3.20;;;23.00;58.30;;;;;;5112159;27;20096;-74
2022/07/01 08:33:34;;;;;;;3.97;3.47;;;23.10;58.30;;;;;;5116709;28;20051;-72
2022/07/01 08:36:00;;;;;;;5.68;3.60;;;23.10;58.00;;;;;;5121752;27;20100;-72
2022/07/01 08:38:26;;;;;;;5.55;3.08;;;23.10;58.00;;;;;;5115265;28;20034;-72
2022/07/01 08:40:51;;;;;;;8.43;3.33;;;23.10;58.00;;;;;;5121909;27;20036;-73
2022/07/01 08:43:17;;;;;;;3.55;3.20;;;23.20;57.90;;;;;;5117401;28;20050;-74
2022/07/01 08:45:43;;;;;;;3.88;3.55;;;23.30;57.70;;;;;;5122662;28;20035;-73
2022/07/01 08:48:08;;;;;;;3.22;3.00;;;23.40;57.70;;;;;;5111792;28;20040;-72
2022/07/01 08:50:36;;;;;;;5.82;3.15;;;23.40;57.40;;;;;;5118816;28;20066;-71
2022/07/01 08:53:03;;;;;;;4.28;2.88;;;23.50;57.00;;;;;;5123132;27;20104;-71
2022/07/01 08:55:29;;;;;;;2.88;2.20;;;23.60;56.60;;;;;;5119723;27;20039;-72
2022/07/01 08:57:55;;;;;;;2.10;1.90;;;23.70;56.50;;;;;;5102549;27;20055;-71
2022/07/01 09:00:21;;;;;;;3.17;2.88;;;23.70;56.50;;;;;;5117042;27;20050;-72
2022/07/01 09:02:57;;;;;;;5.95;2.75;;;23.70;56.40;;;;;;5121710;28;20047;-73
2022/07/01 09:05:24;;;;;;;8.82;3.30;;;23.70;56.30;;;;;;5120546;27;20043;-74
2022/07/01 09:07:57;;;;;;;5.57;3.05;;;23.70;56.30;;;;;;5119929;27;20043;-74
2022/07/01 09:10:23;;;;;;;5.70;3.00;;;23.90;55.80;;;;;;5119201;27;20432;-79
2022/07/01 09:12:49;;;;;;;6.65;2.78;;;24.20;55.10;;;;;;5121073;27;20057;-74
2022/07/01 09:20:47;;;;;;;4.50;2.50;;;24.50;54.00;;;;;;5104088;27;20359;-72
2022/07/01 09:23:15;;;;;;;3.53;2.33;;;24.60;54.10;;;;;;5102833;28;20109;-69
2022/07/01 09:28:24;;;;;;;8.65;2.63;;;24.50;54.30;;;;;;5106707;27;20378;-70
2022/07/01 09:30:53;;;;;;;8.52;2.47;;;24.40;54.40;;;;;;5113899;28;20422;-71
2022/07/01 09:33:21;;;;;;;3.30;2.17;;;24.40;54.50;;;;;;5102257;28;20373;-71
2022/07/01 09:35:49;;;;;;;3.08;2.17;;;24.30;54.70;;;;;;5101456;28;20484;-71
2022/07/01 09:38:17;;;;;;;4.85;2.85;;;24.30;54.80;;;;;;5102760;28;20456;-73
2022/07/01 09:40:59;;;;;;;7.35;3.08;;;24.30;54.80;;;;;;5099360;28;20472;-68
2022/07/01 09:43:27;;;;;;;7.13;3.17;;;24.30;54.90;;;;;;5113312;28;20114;-71
2022/07/01 09:45:59;;;;;;;8.80;2.65;;;24.20;54.70;;;;;;5099092;28;20038;-71
2022/07/01 09:48:40;;;;;;;3.40;2.33;;;24.20;54.90;;;;;;5099420;28;20040;-71
2022/07/01 09:51:09;;;;;;;4.22;2.45;;;24.20;55.10;;;;;;5098286;28;20534;-71
2022/07/01 09:53:35;;;;;;;21.25;2.60;;;24.30;55.00;;;;;;5098312;28;20643;-70
2022/07/01 09:56:01;;;;;;;6.95;2.67;;;24.50;54.50;;;;;;5098689;28;20043;-71
2022/07/01 09:58:27;;;;;;;7.68;1.88;;;24.60;54.30;;;;;;5097071;28;20491;-69
2022/07/01 10:00:54;;;;;;;4.53;2.38;;;24.70;54.10;;;;;;5096502;28;20101;-71
2022/07/01 10:03:21;;;;;;;3.35;1.70;;;24.70;53.80;;;;;;5100323;28;20032;-69
2022/07/01 10:14:04;;;;;;;5.30;1.75;;;24.80;53.50;;;;;;5109075;27;20367;-70
2022/07/01 10:16:31;;;;;;;4.85;2.00;;;24.90;53.20;;;;;;5100514;28;20040;-69
2022/07/01 10:18:57;;;;;;;6.72;2.15;;;24.90;53.10;;;;;;5089171;28;20043;-68
2022/07/01 10:21:27;;;;;;;3.03;1.58;;;25.00;53.00;;;;;;5085540;28;20641;-68
2022/07/01 10:24:10;;;;;;;2.53;1.55;;;25.00;53.00;;;;;;5086886;28;20035;-68
2022/07/01 10:26:36;;;;;;;3.22;1.48;;;25.00;52.70;;;;;;5103499;28;20044;-68
2022/07/01 10:29:02;;;;;;;1.90;1.40;;;25.10;52.60;;;;;;5081107;28;20528;-68
2022/07/01 10:31:37;;;;;;;3.33;1.23;;;25.00;52.30;;;;;;5088085;28;20083;-68
2022/07/01 10:34:04;;;;;;;3.63;1.20;;;24.90;52.40;;;;;;5102784;28;20055;-69
2022/07/01 10:36:31;;;;;;;1.98;1.73;;;24.80;52.40;;;;;;5085661;28;20498;-68
2022/07/01 10:44:27;;;;;;;2.03;0.85;;;24.80;52.10;;;;;;5128093;27;20467;-68
2022/07/01 10:47:03;;;;;;;1.90;0.90;;;24.80;52.10;;;;;;5101881;27;20387;-68
2022/07/01 10:52:18;;;;;;;4.07;0.77;;;24.70;52.00;;;;;;5127131;27;20104;-69
2022/07/01 10:57:28;;;;;;;3.25;0.73;;;24.70;51.80;;;;;;5128015;27;20848;-69
2022/07/01 11:02:43;;;;;;;3.63;0.70;;;24.70;51.90;;;;;;5128253;27;20422;-67
2022/07/01 11:05:13;;;;;;;2.95;0.50;;;24.70;52.10;;;;;;5108675;28;20445;-67
2022/07/01 11:07:44;;;;;;;1.83;0.70;;;24.70;52.70;;;;;;5109109;28;20051;-67
2022/07/01 11:10:11;;;;;;;3.00;1.10;;;24.80;52.00;;;;;;5107125;28;20510;-67
2022/07/01 11:12:37;;;;;;;2.05;0.77;;;24.80;52.00;;;;;;5106768;28;20043;-69
2022/07/01 11:15:07;;;;;;;4.43;0.60;;;24.80;52.10;;;;;;5106091;28;20453;-67
2022/07/01 11:17:33;;;;;;;;;;;24.80;52.00;;;;;;5088769;28;20043;-68
2022/07/01 11:20:01;;;;;;;1.60;0.50;;;24.80;52.40;;;;;;5122436;28;19942;-67
2022/07/01 11:22:33;;;;;;;2.10;0.60;;;24.80;52.30;;;;;;5106401;28;20505;-67
2022/07/01 11:25:01;;;;;;;0.88;0.40;;;24.80;52.30;;;;;;5108297;28;20434;-66
2022/07/01 11:27:28;;;;;;;2.97;0.60;;;24.80;52.40;;;;;;5116179;28;20055;-67
2022/07/01 11:29:56;;;;;;;1.02;0.57;;;24.70;52.40;;;;;;5127762;27;20223;-68
2022/07/01 11:40:37;;;;;;;3.30;0.35;;;24.80;52.20;;;;;;5126932;27;20070;-69
2022/07/01 11:43:18;;;;;;;1.92;0.50;;;24.70;52.30;;;;;;5127391;28;20489;-69
2022/07/01 11:45:43;;;;;;;1.25;0.77;;;24.70;52.50;;;;;;5106190;28;20039;-69
2022/07/01 11:48:09;;;;;;;1.98;0.40;;;24.70;52.70;;;;;;5111411;28;20035;-69
2022/07/01 11:50:35;;;;;;;1.17;0.47;;;24.60;52.80;;;;;;5126688;28;20043;-69
2022/07/01 11:53:06;;;;;;;1.20;0.45;;;24.70;53.00;;;;;;5126654;28;20035;-69
2022/07/01 11:55:32;;;;;;;1.98;0.52;;;24.60;53.00;;;;;;5125410;28;20042;-70
2022/07/01 11:57:58;;;;;;;0.77;0.30;;;24.60;53.10;;;;;;5126667;28;20039;-69
2022/07/01 12:00:33;;;;;;;3.53;0.43;;;24.70;53.10;;;;;;5124599;28;20031;-67
2022/07/01 12:02:58;;;;;;;1.35;0.60;;;24.70;53.00;;;;;;5127151;28;20092;-70
2022/07/01 12:05:27;;;;;;;0.80;0.30;;;24.70;53.00;;;;;;5126384;28;20047;-69
2022/07/01 12:07:53;;;;;;;3.97;0.80;;;24.70;53.10;;;;;;5126138;28;20435;-71
2022/07/01 12:10:24;;;;;;;1.25;0.40;;;24.70;53.10;;;;;;5126610;28;20061;-69
2022/07/01 12:12:49;;;;;;;2.22;0.50;;;24.70;53.10;;;;;;5125711;27;20050;-69
2022/07/01 12:15:15;;;;;;;1.73;0.40;;;24.70;53.00;;;;;;5125084;28;20027;-71
2022/07/01 12:17:41;;;;;;;1.25;0.30;;;24.70;53.00;;;;;;5126511;28;20027;-71
2022/07/01 12:20:07;;;;;;;2.45;0.32;;;24.70;53.00;;;;;;5125228;28;20068;-69
2022/07/01 12:22:33;;;;;;;1.30;0.60;;;24.70;53.20;;;;;;5127818;27;20035;-70
2022/07/01 12:25:11;;;;;;;1.88;0.60;;;24.70;53.30;;;;;;5125074;28;20482;-69
2022/07/01 12:27:40;;;;;;;1.45;0.47;;;24.70;53.30;;;;;;5110382;28;20055;-68
2022/07/01 12:30:10;;;;;;;1.57;0.50;;;24.60;53.40;;;;;;5126315;28;20471;-69
2022/07/01 12:32:37;;;;;;;2.08;0.30;;;24.60;53.50;;;;;;5125495;27;20780;-70
2022/07/01 12:35:33;;;;;;;1.70;0.60;;;24.60;53.60;;;;;;5125240;28;20051;-69
2022/07/01 12:37:51;;;;;;;1.73;0.30;;;24.60;53.70;;;;;;5125253;28;20088;-70
2022/07/01 12:40:24;;;;;;;1.13;0.50;;;24.50;53.60;;;;;;5124620;28;20043;-70
2022/07/01 12:42:50;;;;;;;1.08;0.40;;;24.50;53.70;;;;;;5119256;27;20047;-73
2022/07/01 12:45:21;;;;;;;2.90;0.68;;;24.60;53.80;;;;;;5116385;28;20046;-73
2022/07/01 12:47:49;;;;;;;0.80;0.30;;;24.60;53.60;;;;;;5110969;28;20062;-70
2022/07/01 12:53:21;;;;;;;2.00;0.30;;;24.60;53.40;;;;;;5152644;27;1174361;-68
2022/07/01 12:55:51;;;;;;;2.65;0.32;;;24.60;53.30;;;;;;5150308;27;20047;-68
2022/07/01 12:58:21;;;;;;;1.27;0.20;;;24.60;53.50;;;;;;5143369;27;20034;-65
2022/07/01 13:00:50;;;;;;;1.08;0.20;;;24.60;53.50;;;;;;5140202;27;20078;-65
2022/07/01 13:03:21;;;;;;;1.02;0.30;;;24.60;53.40;;;;;;5158171;27;20031;-65
2022/07/01 13:05:46;;;;;;;3.35;0.20;;;24.60;53.30;;;;;;5148208;27;20030;-65
2022/07/01 13:08:12;;;;;;;2.78;0.20;;;24.70;53.10;;;;;;5140030;27;20076;-65
2022/07/01 13:10:38;;;;;;;3.05;0.20;;;24.70;52.80;;;;;;5157108;27;20038;-65
2022/07/01 13:13:04;;;;;;;1.77;0.13;;;24.70;52.60;;;;;;5141950;27;20043;-65
2022/07/01 13:15:30;;;;;;;1.13;0.20;;;24.70;52.40;;;;;;5158222;27;20065;-65
2022/07/01 13:17:56;;;;;;;1.13;0.25;;;24.70;52.20;;;;;;5140013;27;20303;-65
2022/07/01 13:20:22;;;;;;;1.02;0.20;;;24.70;52.10;;;;;;5157886;27;20034;-65
2022/07/01 13:22:51;;;;;;;1.75;0.20;;;24.70;51.80;;;;;;5145525;27;20062;-67
2022/07/01 13:25:16;;;;;;;3.47;0.20;;;24.80;51.80;;;;;;5158334;27;20069;-68
2022/07/01 13:27:43;;;;;;;1.38;0.45;;;24.70;51.90;;;;;;5148081;27;20530;-69
2022/07/01 13:30:10;;;;;;;1.48;0.43;;;24.70;51.90;;;;;;5149131;27;20055;-67
2022/07/01 13:32:36;;;;;;;1.77;0.20;;;24.70;52.00;;;;;;5157750;27;20046;-67
2022/07/01 13:35:03;;;;;;;3.50;0.10;;;24.70;52.20;;;;;;5158191;27;20038;-67
2022/07/01 13:37:29;;;;;;;0.98;0.20;;;24.70;52.10;;;;;;5145281;27;20122;-67
2022/07/01 13:39:55;;;;;;;2.78;0.17;;;24.70;52.10;;;;;;5146367;27;20091;-67
2022/07/01 13:42:22;;;;;;;3.65;0.40;;;24.70;52.10;;;;;;5162821;27;20454;-67